createdAt,value
2023-03-21T00:02:00.203Z,46.76
2023-03-21T00:04:40.942Z,46.83
2023-03-21T00:07:15.747Z,46.09
2023-03-21T00:09:46.772Z,45.84
2023-03-21T00:12:17.684Z,45.57
2023-03-21T00:14:48.524Z,45.77
2023-03-21T00:17:23.391Z,45.69
2023-03-21T00:19:56.144Z,45.45
2023-03-21T00:22:31.094Z,44.92
2023-03-21T00:25:02.493Z,44.64
2023-03-21T00:27:53.266Z,44.16
2023-03-21T00:30:25.378Z,44.25
2023-03-21T00:33:03.566Z,43.84
2023-03-21T00:35:58.499Z,44.12
2023-03-21T00:38:28.515Z,43.87
2023-03-21T00:41:04.672Z,43.26
2023-03-21T00:43:35.773Z,43.12
2023-03-21T00:46:07.268Z,43.25
2023-03-21T00:48:38.238Z,43.00
2023-03-21T00:51:26.903Z,43.22
2023-03-21T00:53:59.281Z,42.46
2023-03-21T00:56:32.536Z,42.77
2023-03-21T00:59:03.600Z,42.28
2023-03-21T01:01:35.543Z,42.15
2023-03-21T01:04:14.537Z,41.75
2023-03-21T01:06:46.304Z,41.96
2023-03-21T01:09:20.453Z,41.86
2023-03-21T01:11:52.593Z,41.95
2023-03-21T01:14:25.589Z,41.56
2023-03-21T01:16:56.978Z,41.28
2023-03-21T01:19:50.759Z,41.16
2023-03-21T01:22:20.708Z,41.10
2023-03-21T01:24:58.360Z,41.11
2023-03-21T01:27:31.788Z,41.15
2023-03-21T01:30:11.315Z,41.39
2023-03-21T01:32:48.649Z,41.05
2023-03-21T01:35:20.327Z,41.02
2023-03-21T01:37:52.609Z,40.86
2023-03-21T01:40:28.978Z,40.72
2023-03-21T01:43:36.179Z,40.95
2023-03-21T01:46:30.199Z,40.59
2023-03-21T01:49:28.657Z,40.07
2023-03-21T01:52:23.457Z,40.74
2023-03-21T01:54:58.574Z,40.33
2023-03-21T01:57:43.792Z,40.25
2023-03-21T02:00:23.724Z,40.05
2023-03-21T02:03:15.158Z,40.12
2023-03-21T02:06:04.695Z,40.24
2023-03-21T02:08:40.423Z,39.54
2023-03-21T02:11:16.841Z,40.02
2023-03-21T02:13:50.230Z,39.83
2023-03-21T02:16:48.417Z,40.22
2023-03-21T02:19:41.691Z,40.14
2023-03-21T02:22:45.430Z,39.38
2023-03-21T02:25:55.568Z,39.15
2023-03-21T02:28:31.750Z,39.07
2023-03-21T02:31:38.082Z,38.84
2023-03-21T02:34:42.532Z,40.54
2023-03-21T02:37:18.519Z,41.42
2023-03-21T02:39:57.409Z,41.86
2023-03-21T02:42:32.746Z,41.96
2023-03-21T02:45:27.614Z,42.00
2023-03-21T02:48:10.071Z,42.47
2023-03-21T02:50:53.568Z,42.15
2023-03-21T02:53:27.626Z,42.87
2023-03-21T02:56:00.980Z,41.96
2023-03-21T02:58:35.646Z,42.10
2023-03-21T03:01:10.289Z,42.06
2023-03-21T03:03:48.575Z,41.95
2023-03-21T03:06:46.295Z,41.73
2023-03-21T03:09:30.424Z,42.11
2023-03-21T03:12:17.510Z,42.32
2023-03-21T03:15:03.373Z,41.87
2023-03-21T03:17:40.544Z,41.55
2023-03-21T03:20:46.364Z,41.58
2023-03-21T03:23:21.323Z,41.64
2023-03-21T03:25:57.350Z,41.65
2023-03-21T03:28:34.912Z,41.64
2023-03-21T03:31:10.478Z,41.15
2023-03-21T03:33:48.943Z,41.36
2023-03-21T03:36:33.693Z,42.12
2023-03-21T03:39:11.784Z,41.80
2023-03-21T03:42:10.186Z,41.94
2023-03-21T03:44:44.497Z,41.65
2023-03-21T03:47:34.881Z,41.85
2023-03-21T03:50:33.631Z,41.81
2023-03-21T03:53:18.060Z,41.37
2023-03-21T03:55:53.708Z,41.06
2023-03-21T03:58:39.420Z,41.18
2023-03-21T04:01:18.748Z,41.22
2023-03-21T04:04:01.062Z,41.47
2023-03-21T04:06:42.415Z,41.50
2023-03-21T04:09:20.992Z,41.22
2023-03-21T04:11:55.854Z,40.81
2023-03-21T04:14:35.649Z,41.30
2023-03-21T04:17:10.025Z,41.47
2023-03-21T04:19:41.073Z,40.99
2023-03-21T04:22:13.630Z,40.94
2023-03-21T04:24:46.476Z,41.30
2023-03-21T04:27:17.204Z,40.62
2023-03-21T04:30:08.497Z,40.56
2023-03-21T04:32:57.887Z,40.09
2023-03-21T04:35:30.222Z,40.45
2023-03-21T04:38:01.474Z,39.94
2023-03-21T04:40:40.932Z,39.71
2023-03-21T04:43:11.865Z,39.60
2023-03-21T04:45:43.917Z,39.70
2023-03-21T04:48:15.447Z,39.50
2023-03-21T04:50:47.585Z,39.91
2023-03-21T04:53:18.672Z,39.42
2023-03-21T04:55:53.450Z,39.41
2023-03-21T04:58:26.113Z,39.53
2023-03-21T05:00:58.265Z,39.62
2023-03-21T05:03:35.300Z,39.12
2023-03-21T05:06:07.963Z,38.29
2023-03-21T05:08:39.073Z,38.38
2023-03-21T05:11:12.176Z,38.89
2023-03-21T05:13:47.291Z,38.96
2023-03-21T05:16:18.886Z,38.85
2023-03-21T05:18:52.375Z,38.84
2023-03-21T05:21:24.771Z,39.23
2023-03-21T05:23:55.484Z,38.57
2023-03-21T05:26:27.302Z,39.36
2023-03-21T05:29:15.969Z,39.28
2023-03-21T05:31:48.969Z,38.55
2023-03-21T05:34:20.013Z,38.68
2023-03-21T05:36:52.327Z,38.81
2023-03-21T05:39:24.589Z,38.69
2023-03-21T05:42:04.796Z,38.54
2023-03-21T05:44:36.313Z,38.85
2023-03-21T05:47:10.443Z,38.17
2023-03-21T05:49:48.143Z,37.99
2023-03-21T05:52:19.972Z,38.01
2023-03-21T05:54:52.576Z,38.14
2023-03-21T05:57:29.710Z,37.12
2023-03-21T06:00:04.091Z,37.25
2023-03-21T06:02:46.593Z,37.42
2023-03-21T06:05:40.251Z,36.73
2023-03-21T06:08:21.330Z,36.63
2023-03-21T06:10:52.104Z,36.38
2023-03-21T06:13:23.361Z,36.87
2023-03-21T06:15:57.460Z,36.77
2023-03-21T06:18:29.922Z,36.31
2023-03-21T06:21:20.128Z,36.00
2023-03-21T06:23:55.096Z,36.50
2023-03-21T06:26:27.400Z,36.48
2023-03-21T06:28:58.935Z,36.45
2023-03-21T06:31:30.132Z,36.23
2023-03-21T06:34:06.272Z,35.95
2023-03-21T06:36:37.623Z,35.56
2023-03-21T06:39:09.701Z,35.77
2023-03-21T06:41:43.420Z,35.37
2023-03-21T06:44:14.555Z,35.40
2023-03-21T06:46:55.254Z,35.65
2023-03-21T06:49:27.903Z,36.03
2023-03-21T06:52:01.987Z,35.97
2023-03-21T06:54:32.989Z,35.44
2023-03-21T06:57:08.678Z,35.57
2023-03-21T06:59:42.461Z,35.28
2023-03-21T07:02:17.696Z,34.31
2023-03-21T07:05:01.380Z,34.56
2023-03-21T07:07:33.838Z,34.43
2023-03-21T07:10:07.059Z,35.01
2023-03-21T07:12:47.816Z,34.60
2023-03-21T07:15:23.797Z,34.58
2023-03-21T07:17:55.580Z,34.92
2023-03-21T07:20:27.826Z,35.14
2023-03-21T07:22:59.276Z,34.79
2023-03-21T07:25:31.091Z,34.75
2023-03-21T07:28:02.924Z,34.85
2023-03-21T07:30:34.279Z,35.52
2023-03-21T07:33:05.833Z,35.20
2023-03-21T07:35:40.854Z,35.36
2023-03-21T07:38:12.485Z,35.09
2023-03-21T07:40:43.378Z,35.22
2023-03-21T07:45:48.933Z,35.82
2023-03-21T07:48:20.397Z,36.34
2023-03-21T07:50:51.936Z,35.75
2023-03-21T07:53:23.579Z,35.77
2023-03-21T07:55:57.443Z,36.31
2023-03-21T07:58:32.548Z,36.40
2023-03-21T08:01:03.967Z,35.87
2023-03-21T08:03:34.901Z,36.62
2023-03-21T08:06:06.274Z,36.65
2023-03-21T08:08:37.904Z,37.01
2023-03-21T08:11:09.947Z,36.73
2023-03-21T08:13:41.250Z,36.96
2023-03-21T08:16:12.369Z,37.48
2023-03-21T08:18:43.797Z,37.33
2023-03-21T08:21:15.123Z,37.72
2023-03-21T08:23:46.347Z,37.13
2023-03-21T08:26:19.651Z,37.42
2023-03-21T08:28:50.848Z,37.27
2023-03-21T08:31:22.861Z,37.20
2023-03-21T08:33:55.691Z,37.26
2023-03-21T08:36:30.510Z,37.69
2023-03-21T08:39:06.388Z,38.02
2023-03-21T08:41:39.166Z,38.50
2023-03-21T08:44:12.850Z,38.28
2023-03-21T08:46:46.096Z,37.94
2023-03-21T08:49:17.325Z,37.72
2023-03-21T08:51:48.294Z,37.33
2023-03-21T08:54:24.087Z,38.18
2023-03-21T08:56:54.886Z,38.27
2023-03-21T08:59:25.799Z,38.49
2023-03-21T09:01:57.139Z,38.16
2023-03-21T09:04:30.785Z,37.99
2023-03-21T09:07:06.397Z,38.20
2023-03-21T09:09:38.417Z,38.53
2023-03-21T09:12:11.017Z,38.22
2023-03-21T09:14:42.152Z,38.42
2023-03-21T09:17:17.386Z,38.62
2023-03-21T09:19:50.793Z,38.71
2023-03-21T09:22:22.680Z,38.54
2023-03-21T09:24:54.729Z,39.02
2023-03-21T09:27:34.414Z,39.16
2023-03-21T09:30:07.134Z,39.58
2023-03-21T09:32:39.705Z,39.57
2023-03-21T09:35:13.700Z,39.68
2023-03-21T09:37:44.881Z,39.98
2023-03-21T09:40:41.883Z,39.98
2023-03-21T09:43:34.421Z,40.47
2023-03-21T09:46:29.146Z,40.49
2023-03-21T09:49:08.949Z,40.80
2023-03-21T09:51:44.834Z,40.71
2023-03-21T09:54:29.109Z,40.33
2023-03-21T09:57:12.752Z,40.20
2023-03-21T09:59:47.388Z,40.34
2023-03-21T10:02:33.194Z,41.23
2023-03-21T10:05:15.826Z,40.94
2023-03-21T10:08:28.255Z,41.41
2023-03-21T10:11:04.977Z,41.37
2023-03-21T10:13:40.826Z,41.17
2023-03-21T10:16:16.978Z,40.97
2023-03-21T10:18:50.615Z,41.14
2023-03-21T10:21:56.478Z,41.39
2023-03-21T10:24:26.677Z,41.30
2023-03-21T10:26:58.510Z,41.22
2023-03-21T10:29:45.081Z,41.51
2023-03-21T10:32:18.376Z,41.68
2023-03-21T10:34:59.219Z,41.86
2023-03-21T10:37:30.987Z,42.14
2023-03-21T10:40:01.680Z,42.10
2023-03-21T10:42:34.936Z,41.89
2023-03-21T10:45:17.559Z,42.00
2023-03-21T10:47:51.165Z,41.62
2023-03-21T10:50:26.857Z,41.73
2023-03-21T10:53:01.794Z,41.50
2023-03-21T10:55:37.116Z,41.67
2023-03-21T10:58:19.739Z,41.70
2023-03-21T11:00:51.467Z,41.61
2023-03-21T11:03:32.320Z,41.74
2023-03-21T11:06:28.721Z,42.03
2023-03-21T11:09:24.204Z,41.87
2023-03-21T11:12:20.027Z,42.19
2023-03-21T11:14:53.124Z,42.25
2023-03-21T11:17:28.916Z,42.66
2023-03-21T11:20:11.739Z,42.97
2023-03-21T11:22:44.500Z,42.99
2023-03-21T11:25:38.726Z,43.04
2023-03-21T11:28:23.350Z,43.31
2023-03-21T11:30:59.150Z,43.11
2023-03-21T11:33:37.483Z,43.56
2023-03-21T11:36:23.015Z,43.77
2023-03-21T11:39:05.333Z,43.56
2023-03-21T11:41:36.594Z,43.71
2023-03-21T11:44:07.779Z,43.36
2023-03-21T11:46:43.057Z,43.57
2023-03-21T11:49:13.839Z,43.73
2023-03-21T11:51:47.264Z,44.14
2023-03-21T11:54:47.311Z,44.20
2023-03-21T11:57:32.300Z,43.78
2023-03-21T12:00:16.768Z,44.81
2023-03-21T12:02:57.354Z,44.88
2023-03-21T12:05:45.403Z,44.29
2023-03-21T12:08:43.068Z,44.41
2023-03-21T12:11:41.313Z,44.25
2023-03-21T12:14:53.482Z,44.09
2023-03-21T12:17:34.697Z,43.97
2023-03-21T12:20:39.292Z,44.20
2023-03-21T12:23:49.111Z,44.13
2023-03-21T12:26:34.597Z,43.93
2023-03-21T12:29:28.291Z,44.12
2023-03-21T12:32:40.712Z,43.95
2023-03-21T12:35:26.105Z,44.26
2023-03-21T12:38:20.447Z,43.75
2023-03-21T12:41:07.116Z,43.92
2023-03-21T12:43:45.093Z,44.06
2023-03-21T12:46:50.515Z,44.41
2023-03-21T12:49:30.956Z,44.21
2023-03-21T12:52:28.449Z,44.30
2023-03-21T12:55:20.831Z,44.28
2023-03-21T12:58:04.095Z,44.82
2023-03-21T13:00:56.289Z,44.73
2023-03-21T13:03:39.853Z,44.72
2023-03-21T13:06:20.450Z,44.67
2023-03-21T13:09:28.610Z,45.09
2023-03-21T13:12:25.667Z,45.46
2023-03-21T13:15:24.650Z,45.31
2023-03-21T13:18:26.634Z,45.50
2023-03-21T13:21:00.222Z,45.52
2023-03-21T13:23:40.181Z,45.78
2023-03-21T13:26:13.378Z,45.60
2023-03-21T13:28:45.014Z,45.63
2023-03-21T13:31:26.645Z,45.72
2023-03-21T13:34:01.099Z,45.62
2023-03-21T13:36:34.433Z,45.93
2023-03-21T13:39:08.024Z,45.41
2023-03-21T13:41:40.709Z,45.38
2023-03-21T13:44:23.552Z,45.59
2023-03-21T13:47:04.516Z,46.11
2023-03-21T13:49:36.604Z,45.79
2023-03-21T13:52:13.339Z,45.88
2023-03-21T13:54:55.468Z,46.18
2023-03-21T13:57:31.321Z,45.80
2023-03-21T14:00:40.574Z,46.20
2023-03-21T14:03:15.540Z,45.43
2023-03-21T14:05:52.368Z,46.03
2023-03-21T14:08:36.501Z,45.96
2023-03-21T14:11:11.546Z,45.99
2023-03-21T14:13:51.265Z,46.19
2023-03-21T14:16:24.651Z,46.34
2023-03-21T14:18:59.010Z,46.06
2023-03-21T14:21:33.446Z,46.28
2023-03-21T14:24:13.451Z,46.64
2023-03-21T14:27:02.941Z,46.53
2023-03-21T14:29:35.871Z,46.23
2023-03-21T14:32:07.809Z,46.04
2023-03-21T14:34:39.269Z,46.13
2023-03-21T14:37:12.936Z,46.27
2023-03-21T14:39:43.823Z,46.21
2023-03-21T14:42:15.892Z,46.43
2023-03-21T14:44:55.558Z,46.61
2023-03-21T14:47:33.122Z,46.52
2023-03-21T14:50:07.766Z,46.44
2023-03-21T14:52:39.618Z,46.42
2023-03-21T14:55:17.832Z,46.59
2023-03-21T14:57:50.350Z,46.62
2023-03-21T15:00:32.589Z,46.71
2023-03-21T15:03:04.505Z,46.78
2023-03-21T15:05:38.499Z,47.01
2023-03-21T15:08:11.351Z,46.77
2023-03-21T15:10:44.689Z,46.86
2023-03-21T15:13:21.201Z,47.17
2023-03-21T15:15:57.879Z,46.68
2023-03-21T15:18:41.675Z,46.91
2023-03-21T15:21:42.930Z,47.18
2023-03-21T15:24:20.826Z,47.32
2023-03-21T15:26:52.055Z,47.87
2023-03-21T15:29:35.402Z,48.14
2023-03-21T15:32:18.503Z,47.51
2023-03-21T15:34:49.052Z,47.75
2023-03-21T15:37:25.682Z,47.96
2023-03-21T15:40:10.832Z,48.25
2023-03-21T15:42:43.145Z,47.60
2023-03-21T15:45:27.712Z,47.73
2023-03-21T15:48:28.876Z,47.77
2023-03-21T15:51:03.418Z,47.89
2023-03-21T15:53:37.152Z,47.76
2023-03-21T15:56:17.054Z,47.56
2023-03-21T15:58:50.625Z,47.62
2023-03-21T16:01:23.520Z,47.65
2023-03-21T16:03:59.735Z,47.69
2023-03-21T16:06:35.335Z,47.55
2023-03-21T16:09:11.855Z,47.54
2023-03-21T16:11:56.855Z,47.47
2023-03-21T16:14:29.337Z,47.63
2023-03-21T16:17:00.367Z,47.46
2023-03-21T16:19:31.800Z,47.44
2023-03-21T16:22:02.768Z,47.73
2023-03-21T16:24:34.142Z,47.56
2023-03-21T16:27:05.054Z,47.48
2023-03-21T16:29:35.953Z,47.61
2023-03-21T16:32:11.740Z,47.53
2023-03-21T16:34:43.765Z,47.07
2023-03-21T16:37:18.145Z,47.25
2023-03-21T16:39:50.109Z,47.67
2023-03-21T16:42:20.662Z,47.01
2023-03-21T16:44:51.209Z,47.32
2023-03-21T16:47:24.740Z,47.27
2023-03-21T16:49:56.651Z,47.30
2023-03-21T16:52:28.297Z,47.29
2023-03-21T16:54:59.500Z,47.48
2023-03-21T16:57:30.860Z,47.23
2023-03-21T17:00:04.463Z,47.17
2023-03-21T17:02:35.686Z,47.34
2023-03-21T17:05:08.183Z,46.97
2023-03-21T17:07:44.999Z,47.33
2023-03-21T17:10:27.021Z,47.39
2023-03-21T17:13:00.439Z,47.06
2023-03-21T17:15:33.936Z,47.25
2023-03-21T17:18:06.170Z,47.15
2023-03-21T17:20:39.017Z,47.46
2023-03-21T17:23:11.277Z,47.17
2023-03-21T17:25:42.227Z,47.17
2023-03-21T17:28:12.919Z,47.29
2023-03-21T17:30:44.358Z,47.42
2023-03-21T17:33:16.356Z,46.92
2023-03-21T17:35:49.475Z,47.13
2023-03-21T17:38:20.233Z,47.04
2023-03-21T17:40:51.223Z,47.15
2023-03-21T17:43:24.009Z,47.06
2023-03-21T17:45:55.385Z,46.95
2023-03-21T17:48:26.220Z,47.27
2023-03-21T17:50:57.596Z,46.97
2023-03-21T17:53:28.422Z,46.97
2023-03-21T17:55:59.081Z,46.90
2023-03-21T17:58:31.412Z,46.84
2023-03-21T18:01:02.299Z,46.89
2023-03-21T18:03:41.180Z,46.86
2023-03-21T18:06:17.415Z,46.49
2023-03-21T18:08:49.197Z,45.85
2023-03-21T18:11:21.389Z,46.01
2023-03-21T18:13:59.424Z,45.98
2023-03-21T18:16:42.587Z,46.28
2023-03-21T18:19:14.284Z,46.38
2023-03-21T18:21:45.808Z,46.26
2023-03-21T18:24:17.317Z,46.24
2023-03-21T18:26:48.475Z,46.52
2023-03-21T18:32:12.324Z,46.67
2023-03-21T18:34:45.390Z,46.70
2023-03-21T18:37:16.016Z,46.83
2023-03-21T18:39:47.469Z,46.97
2023-03-21T18:42:20.227Z,47.10
2023-03-21T18:44:55.000Z,46.86
2023-03-21T18:47:28.877Z,46.86
2023-03-21T18:50:14.145Z,46.87
2023-03-21T18:52:45.315Z,47.11
2023-03-21T18:55:16.133Z,47.04
2023-03-21T18:57:46.877Z,47.13
2023-03-21T19:00:22.439Z,47.42
2023-03-21T19:03:04.279Z,47.22
2023-03-21T19:05:41.936Z,47.23
2023-03-21T19:08:13.152Z,47.64
2023-03-21T19:10:44.425Z,47.45
2023-03-21T19:13:15.019Z,47.45
2023-03-21T19:15:48.953Z,47.80
2023-03-21T19:18:49.503Z,47.81
2023-03-21T19:21:11.368Z,47.62
2023-03-21T19:24:16.394Z,48.06
2023-03-21T19:26:32.892Z,47.98
2023-03-21T19:29:03.568Z,48.02
2023-03-21T19:31:34.363Z,48.18
2023-03-21T19:34:05.751Z,48.11
2023-03-21T19:36:36.837Z,47.79
2023-03-21T19:39:07.763Z,47.97
2023-03-21T19:41:40.481Z,48.25
2023-03-21T19:44:13.901Z,48.60
2023-03-21T19:46:44.634Z,48.55
2023-03-21T19:49:22.111Z,48.63
2023-03-21T19:51:55.880Z,48.55
2023-03-21T19:54:38.927Z,49.02
2023-03-21T19:57:10.749Z,48.63
2023-03-21T19:59:42.928Z,48.79
2023-03-21T20:02:34.636Z,48.94
2023-03-21T20:05:06.255Z,48.89
2023-03-21T20:07:37.291Z,48.89
2023-03-21T20:10:11.875Z,48.90
2023-03-21T20:12:43.246Z,48.77
2023-03-21T20:15:20.873Z,49.28
2023-03-21T20:17:52.374Z,48.87
2023-03-21T20:20:24.855Z,49.12
2023-03-21T20:23:07.733Z,48.96
2023-03-21T20:25:44.054Z,48.97
2023-03-21T20:28:23.834Z,49.13
2023-03-21T20:31:01.601Z,49.04
2023-03-21T20:33:32.879Z,49.05
2023-03-21T20:38:59.294Z,49.01
2023-03-21T20:41:30.423Z,49.09
2023-03-21T20:46:57.948Z,49.27
2023-03-21T20:49:29.099Z,49.15
2023-03-21T20:52:51.833Z,48.95
2023-03-21T20:54:51.066Z,48.96
2023-03-21T20:57:22.202Z,49.11
2023-03-21T20:59:53.332Z,48.78
2023-03-21T21:02:24.593Z,49.21
2023-03-21T21:05:28.667Z,48.84
2023-03-21T21:07:49.851Z,48.83
2023-03-21T21:10:22.325Z,49.01
2023-03-21T21:12:54.710Z,49.40
2023-03-21T21:15:25.565Z,49.38
2023-03-21T21:18:08.081Z,49.30
2023-03-21T21:20:39.745Z,49.16
2023-03-21T21:23:13.928Z,49.20
2023-03-21T21:25:46.766Z,49.32
2023-03-21T21:28:19.700Z,48.95
2023-03-21T21:30:54.184Z,49.33
2023-03-21T21:33:26.226Z,49.41
2023-03-21T21:35:57.558Z,49.09
2023-03-21T21:38:28.712Z,49.29
2023-03-21T21:41:01.219Z,49.18
2023-03-21T21:43:35.723Z,49.31
2023-03-21T21:46:09.287Z,49.45
2023-03-21T21:48:42.034Z,49.20
2023-03-21T21:51:12.853Z,49.13
2023-03-21T21:53:43.875Z,49.07
2023-03-21T21:56:15.165Z,49.30
2023-03-21T21:58:55.515Z,49.04
2023-03-21T22:01:27.104Z,49.30
2023-03-21T22:03:59.193Z,49.33
2023-03-21T22:06:30.157Z,49.11
2023-03-21T22:09:01.962Z,49.32
2023-03-21T22:11:32.732Z,49.02
2023-03-21T22:14:04.246Z,49.29
2023-03-21T22:16:34.703Z,49.03
2023-03-21T22:19:05.640Z,49.24
2023-03-21T22:21:39.577Z,49.26
2023-03-21T22:24:10.889Z,49.12
2023-03-21T22:26:41.894Z,48.95
2023-03-21T22:29:12.943Z,49.13
2023-03-21T22:31:45.724Z,48.55
2023-03-21T22:34:16.492Z,48.21
2023-03-21T22:36:47.937Z,47.15
2023-03-21T22:39:27.115Z,47.06
2023-03-21T22:42:05.670Z,46.88
2023-03-21T22:44:36.771Z,46.45
2023-03-21T22:47:10.290Z,46.74
2023-03-21T22:49:43.476Z,46.58
2023-03-21T22:52:14.934Z,46.85
2023-03-21T22:54:46.817Z,46.40
2023-03-21T22:57:18.726Z,46.47
2023-03-21T22:59:50.686Z,45.99
2023-03-21T23:02:22.047Z,45.94
2023-03-21T23:04:53.543Z,46.16
2023-03-21T23:07:24.259Z,46.16
2023-03-21T23:09:55.108Z,46.04
2023-03-21T23:12:26.231Z,45.49
2023-03-21T23:14:57.406Z,45.85
2023-03-21T23:17:28.157Z,45.49
2023-03-21T23:19:58.996Z,45.39
2023-03-21T23:22:36.844Z,45.55
2023-03-21T23:25:09.933Z,46.12
2023-03-21T23:27:40.579Z,46.03
2023-03-21T23:30:11.886Z,46.16
2023-03-21T23:32:42.940Z,46.08
2023-03-21T23:35:13.573Z,45.91
2023-03-21T23:37:50.948Z,46.08
2023-03-21T23:40:22.800Z,46.14
2023-03-21T23:42:53.743Z,46.05
2023-03-21T23:45:24.675Z,46.05
2023-03-21T23:47:56.184Z,46.21
2023-03-21T23:50:27.646Z,46.11
2023-03-21T23:52:58.318Z,45.69
2023-03-21T23:55:29.125Z,45.60
2023-03-21T23:58:03.146Z,45.69
